createdAt,value
2023-08-20T00:02:28.321Z,8.50
2023-08-20T00:04:58.282Z,9.20
2023-08-20T00:07:28.956Z,8.60
2023-08-20T00:09:59.244Z,8.70
2023-08-20T00:12:29.353Z,8.90
2023-08-20T00:15:05.906Z,8.90
2023-08-20T00:17:37.789Z,9.00
2023-08-20T00:20:16.475Z,9.50
2023-08-20T00:22:47.758Z,8.60
2023-08-20T00:25:18.736Z,9.00
2023-08-20T00:27:48.765Z,8.80
2023-08-20T00:30:18.834Z,8.80
2023-08-20T00:43:22.111Z,8.60
2023-08-20T00:45:53.052Z,8.90
2023-08-20T00:48:23.013Z,9.60
2023-08-20T00:50:52.879Z,8.80
2023-08-20T00:53:22.771Z,9.00
2023-08-20T00:55:52.655Z,9.70
2023-08-20T00:58:22.652Z,9.50
2023-08-20T01:00:52.811Z,8.80
2023-08-20T01:03:22.810Z,9.70
2023-08-20T01:05:54.927Z,9.30
2023-08-20T01:08:30.304Z,9.90
2023-08-20T01:11:03.147Z,9.40
2023-08-20T01:13:33.286Z,10.10
2023-08-20T01:16:03.378Z,9.60
2023-08-20T01:18:33.575Z,9.70
2023-08-20T01:21:04.085Z,10.20
2023-08-20T01:23:54.442Z,10.50
2023-08-20T01:26:53.088Z,9.50
2023-08-20T01:29:22.991Z,10.30
2023-08-20T01:31:52.998Z,8.30
2023-08-20T01:34:23.253Z,8.50
2023-08-20T01:36:54.813Z,10.00
2023-08-20T01:39:24.825Z,9.30
2023-08-20T01:41:54.824Z,9.30
2023-08-20T01:44:24.893Z,9.80
2023-08-20T01:46:55.124Z,10.40
2023-08-20T01:49:25.066Z,10.60
2023-08-20T01:51:55.070Z,10.00
2023-08-20T01:54:24.993Z,10.10
2023-08-20T01:56:55.012Z,10.50
2023-08-20T01:59:26.116Z,10.40
2023-08-20T02:01:56.151Z,10.70
2023-08-20T02:04:26.310Z,9.90
2023-08-20T02:06:56.504Z,10.60
2023-08-20T02:09:26.576Z,10.30
2023-08-20T02:11:56.710Z,10.40
2023-08-20T02:14:28.306Z,11.00
2023-08-20T02:16:58.433Z,7.40
2023-08-20T02:19:28.612Z,9.30
2023-08-20T02:21:58.734Z,9.80
2023-08-20T02:24:29.890Z,10.20
2023-08-20T02:27:00.015Z,9.70
2023-08-20T02:29:30.039Z,10.20
2023-08-20T02:32:00.120Z,9.90
2023-08-20T02:34:30.247Z,10.10
2023-08-20T02:37:00.323Z,10.40
2023-08-20T02:39:30.151Z,10.80
2023-08-20T02:42:00.508Z,11.10
2023-08-20T02:44:30.684Z,10.20
2023-08-20T02:47:00.633Z,11.20
2023-08-20T02:49:30.720Z,10.70
2023-08-20T02:52:00.864Z,10.90
2023-08-20T02:54:33.307Z,8.40
2023-08-20T02:57:03.815Z,9.50
2023-08-20T02:59:33.929Z,10.00
2023-08-20T03:02:04.773Z,10.30
2023-08-20T03:04:36.106Z,10.50
2023-08-20T03:07:06.391Z,9.90
2023-08-20T03:09:36.315Z,11.70
2023-08-20T03:12:07.598Z,11.10
2023-08-20T03:14:37.585Z,11.30
2023-08-20T03:17:07.604Z,12.10
2023-08-20T03:19:37.785Z,9.20
2023-08-20T03:22:07.677Z,10.00
2023-08-20T03:24:37.759Z,10.00
2023-08-20T03:27:07.835Z,9.50
2023-08-20T03:29:38.002Z,10.10
2023-08-20T03:32:08.309Z,9.80
2023-08-20T03:34:38.313Z,10.10
2023-08-20T03:37:08.350Z,10.70
2023-08-20T03:39:38.603Z,10.50
2023-08-20T03:42:08.823Z,10.50
2023-08-20T03:44:41.708Z,7.30
2023-08-20T03:47:11.849Z,8.80
2023-08-20T03:49:42.083Z,9.40
2023-08-20T03:52:12.335Z,9.40
2023-08-20T03:54:42.336Z,9.60
2023-08-20T03:57:12.542Z,10.10
2023-08-20T03:59:42.527Z,10.40
2023-08-20T04:02:12.386Z,9.90
2023-08-20T04:04:43.432Z,10.30
2023-08-20T04:07:13.390Z,10.70
2023-08-20T04:09:43.815Z,11.00
2023-08-20T04:12:15.524Z,7.70
2023-08-20T04:14:45.490Z,9.00
2023-08-20T04:17:15.533Z,9.90
2023-08-20T04:19:46.022Z,9.80
2023-08-20T04:22:16.058Z,9.90
2023-08-20T04:24:45.907Z,10.60
2023-08-20T04:27:15.906Z,10.00
2023-08-20T04:29:45.953Z,10.60
2023-08-20T04:32:15.973Z,10.30
2023-08-20T04:34:47.384Z,8.30
2023-08-20T04:37:17.805Z,10.10
2023-08-20T04:39:49.981Z,11.70
2023-08-20T04:42:20.134Z,12.60
2023-08-20T04:44:50.129Z,12.70
2023-08-20T04:47:21.158Z,12.30
2023-08-20T04:49:51.344Z,12.70
2023-08-20T04:52:21.695Z,13.20
2023-08-20T04:54:51.939Z,13.10
2023-08-20T04:57:22.483Z,10.60
2023-08-20T04:59:52.972Z,12.00
2023-08-20T05:02:36.197Z,12.70
2023-08-20T05:05:11.099Z,13.50
2023-08-20T05:07:44.773Z,14.90
2023-08-20T05:10:14.821Z,15.70
2023-08-20T05:12:45.060Z,15.70
2023-08-20T05:15:15.743Z,17.70
2023-08-20T05:17:45.989Z,14.70
2023-08-20T05:20:16.712Z,16.00
2023-08-20T05:22:47.704Z,16.50
2023-08-20T05:25:18.040Z,17.10
2023-08-20T05:27:48.411Z,16.20
2023-08-20T05:30:19.015Z,17.00
2023-08-20T05:32:49.035Z,18.80
2023-08-20T05:35:19.282Z,16.90
2023-08-20T05:37:49.625Z,13.30
2023-08-20T05:40:19.924Z,12.60
2023-08-20T05:42:52.342Z,12.50
2023-08-20T05:45:22.642Z,13.30
2023-08-20T05:47:52.889Z,12.50
2023-08-20T05:50:22.979Z,12.70
2023-08-20T05:52:53.634Z,11.50
2023-08-20T05:55:25.073Z,11.30
2023-08-20T05:57:55.856Z,9.80
2023-08-20T06:00:25.934Z,9.20
2023-08-20T06:02:56.191Z,8.70
2023-08-20T06:05:26.180Z,8.50
2023-08-20T06:07:56.754Z,8.60
2023-08-20T06:10:27.579Z,7.00
2023-08-20T06:12:58.257Z,6.80
2023-08-20T06:15:28.323Z,7.20
2023-08-20T06:17:58.365Z,6.80
2023-08-20T06:20:28.468Z,7.00
2023-08-20T06:22:58.460Z,7.00
2023-08-20T06:25:28.455Z,6.80
2023-08-20T06:27:58.519Z,6.70
2023-08-20T06:30:29.003Z,5.70
2023-08-20T06:32:58.976Z,6.40
2023-08-20T06:35:29.015Z,5.80
2023-08-20T06:37:59.475Z,6.60
2023-08-20T06:40:29.771Z,6.30
2023-08-20T06:42:59.988Z,6.00
2023-08-20T06:45:30.533Z,6.40
2023-08-20T06:48:00.494Z,6.30
2023-08-20T06:50:30.726Z,7.00
2023-08-20T06:53:00.625Z,6.60
2023-08-20T06:55:30.661Z,7.30
2023-08-20T06:58:01.018Z,7.00
2023-08-20T07:00:31.118Z,6.40
2023-08-20T07:03:01.146Z,6.30
2023-08-20T07:05:31.339Z,6.30
2023-08-20T07:08:01.435Z,6.10
2023-08-20T07:10:31.528Z,6.20
2023-08-20T07:13:01.475Z,6.20
2023-08-20T07:15:31.986Z,5.80
2023-08-20T07:18:02.130Z,5.80
2023-08-20T07:20:32.181Z,6.30
2023-08-20T07:23:03.229Z,5.80
2023-08-20T07:25:35.093Z,6.10
2023-08-20T07:28:06.436Z,6.00
2023-08-20T07:30:36.715Z,6.70
2023-08-20T07:33:07.351Z,6.40
2023-08-20T07:35:37.292Z,6.40
2023-08-20T07:38:07.285Z,6.10
2023-08-20T07:40:37.296Z,6.70
2023-08-20T07:43:07.839Z,5.50
2023-08-20T07:45:38.387Z,6.20
2023-08-20T07:48:09.176Z,5.50
2023-08-20T07:50:39.516Z,5.50
2023-08-20T07:53:11.948Z,6.40
2023-08-20T07:55:41.920Z,6.10
2023-08-20T07:58:12.064Z,5.40
2023-08-20T08:00:42.029Z,5.60
2023-08-20T08:03:12.077Z,5.50
2023-08-20T08:05:42.197Z,5.40
2023-08-20T08:08:12.218Z,5.70
2023-08-20T08:10:42.265Z,5.50
2023-08-20T08:13:12.477Z,5.50
2023-08-20T08:15:42.514Z,5.60
2023-08-20T08:18:12.501Z,5.50
2023-08-20T08:20:42.571Z,5.70
2023-08-20T08:23:12.622Z,5.20
2023-08-20T08:25:42.702Z,5.10
2023-08-20T08:28:12.645Z,5.00
2023-08-20T08:30:43.140Z,4.60
2023-08-20T08:33:13.402Z,4.40
2023-08-20T08:35:43.447Z,4.80
2023-08-20T08:38:13.562Z,5.30
2023-08-20T08:40:43.522Z,6.60
2023-08-20T08:43:17.588Z,7.20
2023-08-20T08:45:50.001Z,5.90
2023-08-20T08:48:20.774Z,5.30
2023-08-20T08:50:50.723Z,5.40
2023-08-20T08:53:20.679Z,4.90
2023-08-20T08:55:51.305Z,4.50
2023-08-20T08:58:21.595Z,4.40
2023-08-20T09:00:51.928Z,4.40
2023-08-20T09:03:22.003Z,4.80
2023-08-20T09:05:56.391Z,5.00
2023-08-20T09:08:29.127Z,4.40
2023-08-20T09:10:59.721Z,4.70
2023-08-20T09:13:36.261Z,4.90
2023-08-20T09:16:09.715Z,4.70
2023-08-20T09:18:41.833Z,4.90
2023-08-20T09:21:12.006Z,4.90
2023-08-20T09:23:41.947Z,4.50
2023-08-20T09:26:11.950Z,4.40
2023-08-20T09:28:45.330Z,4.60
2023-08-20T09:31:15.395Z,4.40
2023-08-20T09:33:54.793Z,5.10
2023-08-20T09:36:33.413Z,4.80
2023-08-20T09:39:03.433Z,4.40
2023-08-20T09:41:33.581Z,4.70
2023-08-20T09:44:03.597Z,4.80
2023-08-20T09:46:34.128Z,4.70
2023-08-20T09:49:04.475Z,3.80
2023-08-20T09:51:35.241Z,4.10
2023-08-20T09:54:12.521Z,4.60
2023-08-20T09:56:42.432Z,4.70
2023-08-20T09:59:12.338Z,4.50
2023-08-20T10:01:42.344Z,4.60
2023-08-20T10:04:13.653Z,4.60
2023-08-20T10:06:43.643Z,4.70
2023-08-20T10:09:14.267Z,4.60
2023-08-20T10:11:44.248Z,4.30
2023-08-20T10:14:15.354Z,4.50
2023-08-20T10:16:45.287Z,4.80
2023-08-20T10:19:16.673Z,4.40
2023-08-20T10:21:47.863Z,4.40
2023-08-20T10:24:20.483Z,4.30
2023-08-20T10:26:50.808Z,4.40
2023-08-20T10:29:40.358Z,3.50
2023-08-20T10:32:11.103Z,3.80
2023-08-20T10:34:43.501Z,3.90
2023-08-20T10:37:14.665Z,4.10
2023-08-20T10:39:44.781Z,4.10
2023-08-20T10:42:31.139Z,4.10
2023-08-20T10:45:02.276Z,4.30
2023-08-20T10:47:39.611Z,4.20
2023-08-20T10:50:12.155Z,4.30
2023-08-20T10:52:43.285Z,4.40
2023-08-20T10:55:13.560Z,4.00
2023-08-20T10:57:43.807Z,4.60
2023-08-20T11:00:18.013Z,4.30
2023-08-20T11:02:48.175Z,3.80
2023-08-20T11:05:22.599Z,3.80
2023-08-20T11:07:52.907Z,4.50
2023-08-20T11:10:22.949Z,4.00
2023-08-20T11:12:53.047Z,3.80
2023-08-20T11:15:23.243Z,3.90
2023-08-20T11:17:53.362Z,4.10
2023-08-20T11:20:23.598Z,3.60
2023-08-20T11:22:53.891Z,3.90
2023-08-20T11:25:24.102Z,3.90
2023-08-20T11:27:53.974Z,3.60
2023-08-20T11:30:25.714Z,3.90
2023-08-20T11:32:55.764Z,3.80
2023-08-20T11:35:25.870Z,3.60
2023-08-20T11:37:56.053Z,4.00
2023-08-20T11:40:26.032Z,4.40
2023-08-20T11:42:56.137Z,3.90
2023-08-20T11:45:26.198Z,3.90
2023-08-20T11:47:59.552Z,4.10
2023-08-20T11:50:29.636Z,4.20
2023-08-20T11:53:02.465Z,4.20
2023-08-20T11:55:32.556Z,3.90
2023-08-20T11:58:02.884Z,4.50
2023-08-20T12:00:33.323Z,4.30
2023-08-20T12:03:05.193Z,3.80
2023-08-20T12:05:35.198Z,3.80
2023-08-20T12:08:05.547Z,4.30
2023-08-20T12:10:36.072Z,4.10
2023-08-20T12:13:06.361Z,3.90
2023-08-20T12:15:36.368Z,4.10
2023-08-20T12:18:07.836Z,4.00
2023-08-20T12:20:38.362Z,3.90
2023-08-20T12:23:08.875Z,3.60
2023-08-20T12:25:39.140Z,3.90
2023-08-20T12:28:09.551Z,3.80
2023-08-20T12:30:40.235Z,3.70
2023-08-20T12:33:10.407Z,4.40
2023-08-20T12:35:40.433Z,4.00
2023-08-20T12:38:11.000Z,4.00
2023-08-20T12:40:41.093Z,3.90
2023-08-20T12:43:10.984Z,4.10
2023-08-20T12:45:41.428Z,4.20
2023-08-20T12:48:11.417Z,4.00
2023-08-20T12:50:42.372Z,4.30
2023-08-20T12:53:14.124Z,4.70
2023-08-20T12:55:44.116Z,4.30
2023-08-20T12:58:14.466Z,4.20
2023-08-20T13:00:44.722Z,4.10
2023-08-20T13:03:15.808Z,4.30
2023-08-20T13:05:46.698Z,4.60
2023-08-20T13:08:17.558Z,4.10
2023-08-20T13:10:49.575Z,4.20
2023-08-20T13:13:19.488Z,4.30
2023-08-20T13:15:50.522Z,4.40
2023-08-20T13:18:25.873Z,4.50
2023-08-20T13:20:56.315Z,4.30
2023-08-20T13:23:26.308Z,4.40
2023-08-20T13:25:56.651Z,4.20
2023-08-20T13:28:26.804Z,12.00
2023-08-20T13:30:56.847Z,5.70
2023-08-20T13:33:27.161Z,5.20
2023-08-20T13:35:58.499Z,5.20
2023-08-20T13:38:28.943Z,23.30
2023-08-20T13:40:59.182Z,15.90
2023-08-20T13:43:29.251Z,102.80
2023-08-20T13:45:59.515Z,137.30
2023-08-20T13:48:29.501Z,36.60
2023-08-20T13:50:59.680Z,10.00
2023-08-20T13:53:29.778Z,7.20
2023-08-20T13:55:59.986Z,5.30
2023-08-20T13:58:30.174Z,4.70
2023-08-20T14:01:00.554Z,4.00
2023-08-20T14:03:30.614Z,4.00
2023-08-20T14:06:01.131Z,4.00
2023-08-20T14:08:31.551Z,3.90
2023-08-20T14:11:01.668Z,4.30
2023-08-20T14:13:31.530Z,4.30
2023-08-20T14:16:02.283Z,4.00
2023-08-20T14:18:32.721Z,4.00
2023-08-20T14:21:02.723Z,4.80
2023-08-20T14:23:33.010Z,4.50
2023-08-20T14:26:05.063Z,117.00
2023-08-20T14:28:34.990Z,96.20
2023-08-20T14:31:05.926Z,31.10
2023-08-20T14:33:36.086Z,48.90
2023-08-20T14:36:06.713Z,41.80
2023-08-20T14:38:37.004Z,15.90
2023-08-20T14:41:07.442Z,8.80
2023-08-20T14:43:40.687Z,24.80
2023-08-20T14:46:10.664Z,44.00
2023-08-20T14:48:42.424Z,103.70
2023-08-20T14:51:12.428Z,35.30
2023-08-20T14:53:42.459Z,17.30
2023-08-20T14:56:12.491Z,9.00
2023-08-20T14:58:42.541Z,6.30
2023-08-20T15:01:12.512Z,5.70
2023-08-20T15:03:42.919Z,5.00
2023-08-20T15:06:13.048Z,4.50
2023-08-20T15:08:43.141Z,4.30
2023-08-20T15:11:12.981Z,4.30
2023-08-20T15:13:42.870Z,4.90
2023-08-20T15:16:13.106Z,4.60
2023-08-20T15:18:42.990Z,4.60
2023-08-20T15:21:12.980Z,4.90
2023-08-20T15:23:43.241Z,5.00
2023-08-20T15:26:13.370Z,5.00
2023-08-20T15:28:43.396Z,4.90
2023-08-20T15:31:13.420Z,5.00
2023-08-20T15:33:43.793Z,4.60
2023-08-20T15:36:13.809Z,4.80
2023-08-20T15:38:43.915Z,5.40
2023-08-20T15:41:14.014Z,4.70
2023-08-20T15:43:47.081Z,4.80
2023-08-20T15:46:17.198Z,4.80
2023-08-20T15:48:47.747Z,5.00
2023-08-20T15:51:17.861Z,4.80
2023-08-20T15:53:47.961Z,5.20
2023-08-20T15:56:17.935Z,5.20
2023-08-20T15:58:48.838Z,5.20
2023-08-20T16:01:18.730Z,5.10
2023-08-20T16:03:48.759Z,5.30
2023-08-20T16:06:18.734Z,5.50
2023-08-20T16:08:48.716Z,5.20
2023-08-20T16:11:18.797Z,5.50
2023-08-20T16:13:49.446Z,5.60
2023-08-20T16:16:19.944Z,5.70
2023-08-20T16:18:50.308Z,6.00
2023-08-20T16:21:20.361Z,5.80
2023-08-20T16:23:50.587Z,5.60
2023-08-20T16:26:20.590Z,5.60
2023-08-20T16:28:51.864Z,5.40
2023-08-20T16:34:23.049Z,5.20
2023-08-20T16:36:53.216Z,5.20
2023-08-20T16:39:23.235Z,5.40
2023-08-20T16:41:53.289Z,5.00
2023-08-20T16:44:23.554Z,5.20
2023-08-20T16:46:54.496Z,5.40
2023-08-20T16:49:25.398Z,4.80
2023-08-20T16:51:55.444Z,5.60
2023-08-20T16:54:25.577Z,6.00
2023-08-20T16:56:56.040Z,5.70
2023-08-20T16:59:25.983Z,5.50
2023-08-20T17:01:56.060Z,6.20
2023-08-20T17:04:30.105Z,5.50
2023-08-20T17:07:00.323Z,6.00
2023-08-20T17:09:30.415Z,6.00
2023-08-20T17:12:01.440Z,5.90
2023-08-20T17:14:32.080Z,5.60
2023-08-20T17:17:03.390Z,5.60
2023-08-20T17:19:33.403Z,5.80
2023-08-20T17:22:03.693Z,6.40
2023-08-20T17:24:33.822Z,6.00
2023-08-20T17:27:04.094Z,5.60
2023-08-20T17:29:34.166Z,6.60
2023-08-20T17:32:04.196Z,6.70
2023-08-20T17:34:35.332Z,6.20
2023-08-20T17:37:05.382Z,6.60
2023-08-20T17:39:35.459Z,5.60
2023-08-20T17:42:05.668Z,6.90
2023-08-20T17:44:36.500Z,6.20
2023-08-20T17:47:06.777Z,5.80
2023-08-20T17:49:36.974Z,5.90
2023-08-20T17:52:07.220Z,6.30
2023-08-20T17:54:37.379Z,6.10
2023-08-20T17:57:07.622Z,5.60
2023-08-20T17:59:37.671Z,6.30
2023-08-20T18:02:11.198Z,6.00
2023-08-20T18:04:41.350Z,6.20
2023-08-20T18:07:11.848Z,6.50
2023-08-20T18:09:42.087Z,5.80
2023-08-20T18:12:12.281Z,6.10
2023-08-20T18:14:42.365Z,6.30
2023-08-20T18:17:12.208Z,6.60
2023-08-20T18:19:43.354Z,6.50
2023-08-20T18:22:13.369Z,6.40
2023-08-20T18:24:43.541Z,6.40
2023-08-20T18:27:13.978Z,6.80
2023-08-20T18:29:45.124Z,6.40
2023-08-20T18:32:15.454Z,6.70
2023-08-20T18:34:45.522Z,6.70
2023-08-20T18:37:15.515Z,6.80
2023-08-20T18:39:45.602Z,6.40
2023-08-20T18:42:15.594Z,6.20
2023-08-20T18:44:45.748Z,6.60
2023-08-20T18:47:15.753Z,6.70
2023-08-20T18:49:48.351Z,6.10
2023-08-20T18:52:21.351Z,6.80
2023-08-20T18:54:51.524Z,6.60
2023-08-20T18:57:21.773Z,7.10
2023-08-20T18:59:51.938Z,6.20
2023-08-20T19:02:22.000Z,6.40
2023-08-20T19:04:53.149Z,6.40
2023-08-20T19:07:23.754Z,6.10
2023-08-20T19:09:53.848Z,5.70
2023-08-20T19:12:26.709Z,6.50
2023-08-20T19:14:57.138Z,5.70
2023-08-20T19:17:27.681Z,6.00
2023-08-20T19:19:57.691Z,5.40
2023-08-20T19:22:27.709Z,5.70
2023-08-20T19:24:58.348Z,6.00
2023-08-20T19:27:28.438Z,5.90
2023-08-20T19:29:59.040Z,5.40
2023-08-20T19:32:30.386Z,5.50
2023-08-20T19:35:00.614Z,5.70
2023-08-20T19:37:30.728Z,5.50
2023-08-20T19:40:02.151Z,5.20
2023-08-20T19:42:35.671Z,5.90
2023-08-20T19:45:07.334Z,5.40
2023-08-20T19:47:37.771Z,6.00
2023-08-20T19:50:08.736Z,5.80
2023-08-20T19:52:39.340Z,5.90
2023-08-20T19:55:10.074Z,5.00
2023-08-20T19:57:41.200Z,5.40
2023-08-20T20:00:12.666Z,5.20
2023-08-20T20:02:42.911Z,5.50
2023-08-20T20:05:15.902Z,5.00
2023-08-20T20:07:45.926Z,5.50
2023-08-20T20:10:16.159Z,5.80
2023-08-20T20:12:50.507Z,5.20
2023-08-20T20:15:20.855Z,5.70
2023-08-20T20:17:50.949Z,5.20
2023-08-20T20:20:23.087Z,5.30
2023-08-20T20:22:53.444Z,5.20
2023-08-20T20:25:25.003Z,5.80
2023-08-20T20:27:55.661Z,5.60
2023-08-20T20:30:25.901Z,5.30
2023-08-20T20:32:56.140Z,6.00
2023-08-20T20:35:26.152Z,5.70
2023-08-20T20:37:56.020Z,5.10
2023-08-20T20:40:26.471Z,5.90
2023-08-20T20:42:56.664Z,5.90
2023-08-20T20:45:26.647Z,5.60
2023-08-20T20:47:56.967Z,5.40
2023-08-20T20:50:26.928Z,6.00
2023-08-20T20:52:57.214Z,5.60
2023-08-20T20:55:27.382Z,5.50
2023-08-20T20:57:57.429Z,5.90
2023-08-20T21:00:27.524Z,5.80
2023-08-20T21:02:57.644Z,5.60
2023-08-20T21:05:27.556Z,5.40
2023-08-20T21:07:57.767Z,5.60
2023-08-20T21:10:27.914Z,5.30
2023-08-20T21:12:58.055Z,5.80
2023-08-20T21:15:28.145Z,5.90
2023-08-20T21:17:58.244Z,5.60
2023-08-20T21:20:28.427Z,5.60
2023-08-20T21:22:58.436Z,5.60
2023-08-20T21:25:28.840Z,5.60
2023-08-20T21:27:58.944Z,5.70
2023-08-20T21:30:28.974Z,5.70
2023-08-20T21:32:59.052Z,6.00
2023-08-20T21:35:29.277Z,5.60
2023-08-20T21:37:59.359Z,5.70
2023-08-20T21:40:29.673Z,6.00
2023-08-20T21:42:59.620Z,6.50
2023-08-20T21:45:29.800Z,6.00
2023-08-20T21:47:59.736Z,6.20
2023-08-20T21:50:29.746Z,5.60
2023-08-20T21:52:59.677Z,5.90
2023-08-20T21:55:31.751Z,5.50
2023-08-20T21:58:01.814Z,6.10
2023-08-20T22:00:32.283Z,5.80
2023-08-20T22:03:02.330Z,5.60
2023-08-20T22:05:32.913Z,5.40
2023-08-20T22:08:03.627Z,5.50
2023-08-20T22:10:34.138Z,5.90
2023-08-20T22:13:04.267Z,6.60
2023-08-20T22:15:34.490Z,5.90
2023-08-20T22:18:05.485Z,6.00
2023-08-20T22:20:35.426Z,6.10
2023-08-20T22:23:05.566Z,5.90
2023-08-20T22:25:35.533Z,5.80
2023-08-20T22:28:06.336Z,6.20
2023-08-20T22:30:37.952Z,6.10
2023-08-20T22:33:08.138Z,6.40
2023-08-20T22:35:38.102Z,6.20
2023-08-20T22:38:10.174Z,5.90
2023-08-20T22:40:43.330Z,5.90
2023-08-20T22:43:13.320Z,6.10
2023-08-20T22:45:43.288Z,5.70
2023-08-20T22:48:13.505Z,6.40
2023-08-20T22:58:11.987Z,6.10
2023-08-20T23:00:42.085Z,6.70
2023-08-20T23:03:12.158Z,6.70
2023-08-20T23:05:42.205Z,6.80
2023-08-20T23:08:12.305Z,6.00
2023-08-20T23:10:42.315Z,7.00
2023-08-20T23:13:12.208Z,6.80
2023-08-20T23:15:44.523Z,6.70
2023-08-20T23:18:15.257Z,6.60
2023-08-20T23:20:46.212Z,6.80
2023-08-20T23:23:16.098Z,6.30
2023-08-20T23:25:47.112Z,7.00
2023-08-20T23:28:17.295Z,6.60
2023-08-20T23:30:47.283Z,6.80
2023-08-20T23:33:17.939Z,6.40
2023-08-20T23:35:48.182Z,6.70
2023-08-20T23:38:18.274Z,6.70
2023-08-20T23:40:48.375Z,6.80
2023-08-20T23:43:18.248Z,7.30
2023-08-20T23:45:48.067Z,7.10
2023-08-20T23:48:18.189Z,6.80
2023-08-20T23:50:48.245Z,6.70
2023-08-20T23:53:18.672Z,6.80
2023-08-20T23:55:48.782Z,6.80
2023-08-20T23:58:18.763Z,6.60
